createdAt,value
2022-11-24T00:01:38.168Z,8.00
2022-11-24T00:05:45.028Z,8.10
2022-11-24T00:09:51.886Z,8.10
2022-11-24T00:13:59.816Z,8.10
2022-11-24T00:18:06.645Z,8.10
2022-11-24T00:22:13.514Z,8.10
2022-11-24T00:26:22.790Z,8.00
2022-11-24T00:30:29.642Z,8.00
2022-11-24T00:34:36.553Z,8.10
2022-11-24T00:38:43.924Z,8.10
2022-11-24T00:42:50.742Z,8.10
2022-11-24T00:46:57.718Z,8.10
2022-11-24T00:51:10.394Z,8.00
2022-11-24T00:55:17.289Z,8.10
2022-11-24T00:59:24.125Z,8.10
2022-11-24T01:03:31.580Z,8.00
2022-11-24T01:07:38.496Z,8.10
2022-11-24T01:12:04.156Z,8.10
2022-11-24T01:16:22.043Z,8.10
2022-11-24T01:20:30.339Z,8.20
2022-11-24T01:24:37.183Z,8.20
2022-11-24T01:28:47.484Z,8.20
2022-11-24T01:32:54.692Z,8.20
2022-11-24T01:37:01.545Z,8.20
2022-11-24T01:41:18.971Z,8.20
2022-11-24T01:45:34.901Z,8.30
2022-11-24T01:49:47.071Z,8.30
2022-11-24T01:54:07.202Z,8.30
2022-11-24T01:58:19.232Z,8.30
2022-11-24T02:02:29.665Z,8.20
2022-11-24T02:06:38.705Z,8.10
2022-11-24T02:10:46.211Z,8.10
2022-11-24T02:14:54.572Z,8.00
2022-11-24T02:19:05.791Z,8.00
2022-11-24T02:23:21.456Z,8.00
2022-11-24T02:27:28.816Z,8.10
2022-11-24T02:31:35.739Z,8.10
2022-11-24T02:35:42.838Z,8.10
2022-11-24T02:39:49.659Z,8.20
2022-11-24T02:43:59.940Z,8.30
2022-11-24T02:48:07.900Z,8.20
2022-11-24T02:52:14.822Z,8.10
2022-11-24T02:56:21.684Z,8.10
2022-11-24T03:00:28.577Z,8.20
2022-11-24T03:04:35.730Z,8.20
2022-11-24T03:08:42.764Z,8.10
2022-11-24T03:12:49.639Z,8.20
2022-11-24T03:16:56.464Z,8.10
2022-11-24T03:21:03.324Z,8.10
2022-11-24T03:25:10.305Z,8.10
2022-11-24T03:29:17.189Z,8.10
2022-11-24T03:33:24.017Z,8.10
2022-11-24T03:37:31.045Z,8.00
2022-11-24T03:41:37.901Z,8.10
2022-11-24T03:45:49.236Z,8.00
2022-11-24T03:49:56.045Z,8.10
2022-11-24T03:54:02.958Z,8.20
2022-11-24T03:58:09.794Z,8.20
2022-11-24T04:02:16.732Z,8.30
2022-11-24T04:06:23.665Z,8.30
2022-11-24T04:10:32.060Z,8.40
2022-11-24T04:14:38.769Z,8.40
2022-11-24T04:18:45.589Z,8.30
2022-11-24T04:22:52.358Z,8.20
2022-11-24T04:26:59.073Z,8.20
2022-11-24T04:31:06.748Z,8.30
2022-11-24T04:35:13.604Z,8.20
2022-11-24T04:39:25.284Z,8.20
2022-11-24T04:43:40.297Z,8.10
2022-11-24T04:47:47.410Z,8.30
2022-11-24T04:51:54.244Z,8.30
2022-11-24T04:56:05.992Z,8.20
2022-11-24T05:00:13.395Z,8.20
2022-11-24T05:04:21.460Z,8.20
2022-11-24T05:08:28.225Z,8.30
2022-11-24T05:12:34.902Z,8.30
2022-11-24T05:16:41.603Z,8.30
2022-11-24T05:20:49.525Z,8.30
2022-11-24T05:24:58.443Z,8.20
2022-11-24T05:29:05.102Z,8.30
2022-11-24T05:33:24.089Z,8.30
2022-11-24T05:37:31.122Z,8.20
2022-11-24T05:41:37.908Z,8.20
2022-11-24T05:45:45.204Z,8.30
2022-11-24T05:49:51.988Z,8.30
2022-11-24T05:53:58.815Z,8.40
2022-11-24T05:58:07.836Z,8.50
2022-11-24T06:02:14.598Z,8.60
2022-11-24T06:06:21.369Z,8.60
2022-11-24T06:10:28.749Z,8.60
2022-11-24T06:14:35.802Z,8.70
2022-11-24T06:18:42.845Z,8.70
2022-11-24T06:22:49.567Z,8.70
2022-11-24T06:26:56.238Z,8.70
2022-11-24T06:31:04.229Z,8.70
2022-11-24T06:35:12.678Z,8.70
2022-11-24T06:39:19.355Z,8.70
2022-11-24T06:43:27.596Z,8.70
2022-11-24T06:47:34.249Z,8.60
2022-11-24T06:51:41.956Z,8.70
2022-11-24T06:55:48.739Z,8.70
2022-11-24T06:59:55.472Z,9.40
2022-11-24T07:04:02.180Z,8.70
2022-11-24T07:08:12.019Z,8.60
2022-11-24T07:12:24.209Z,8.60
2022-11-24T07:16:31.300Z,8.60
2022-11-24T07:20:38.260Z,8.50
2022-11-24T07:24:44.916Z,8.50
2022-11-24T07:28:51.593Z,8.50
2022-11-24T07:32:59.743Z,8.50
2022-11-24T07:37:06.438Z,8.40
2022-11-24T07:41:14.814Z,8.30
2022-11-24T07:45:21.559Z,8.30
2022-11-24T07:49:28.229Z,8.30
2022-11-24T07:53:35.751Z,8.20
2022-11-24T07:57:42.454Z,8.20
2022-11-24T08:01:49.174Z,8.30
2022-11-24T08:06:23.083Z,8.30
2022-11-24T08:10:26.832Z,8.40
2022-11-24T08:14:34.013Z,8.40
2022-11-24T08:18:41.652Z,8.50
2022-11-24T08:22:48.323Z,8.60
2022-11-24T08:26:54.980Z,8.70
2022-11-24T08:31:06.505Z,8.70
2022-11-24T08:35:14.262Z,8.70
2022-11-24T08:39:21.311Z,8.70
2022-11-24T08:43:28.029Z,8.70
2022-11-24T08:47:34.721Z,8.60
2022-11-24T08:51:41.420Z,8.60
2022-11-24T08:55:48.101Z,8.80
2022-11-24T08:59:54.793Z,8.90
2022-11-24T09:04:01.586Z,8.90
2022-11-24T09:08:08.299Z,9.10
2022-11-24T09:12:15.099Z,9.20
2022-11-24T09:16:27.564Z,9.20
2022-11-24T09:20:34.230Z,9.20
2022-11-24T09:24:40.882Z,9.00
2022-11-24T09:28:48.126Z,9.00
2022-11-24T09:32:57.856Z,9.20
2022-11-24T09:37:04.593Z,9.40
2022-11-24T09:41:17.458Z,9.60
2022-11-24T09:46:04.355Z,9.80
2022-11-24T09:50:22.549Z,10.00
2022-11-24T09:54:31.052Z,10.20
2022-11-24T09:58:45.549Z,10.30
2022-11-24T10:02:52.256Z,10.40
2022-11-24T10:07:23.357Z,10.50
2022-11-24T10:11:58.631Z,10.50
2022-11-24T10:16:27.741Z,10.40
2022-11-24T10:20:59.533Z,10.50
2022-11-24T10:25:13.002Z,10.60
2022-11-24T10:29:26.151Z,10.80
2022-11-24T10:33:33.742Z,11.10
2022-11-24T10:38:21.783Z,11.20
2022-11-24T10:42:32.300Z,11.20
2022-11-24T10:46:39.648Z,11.30
2022-11-24T10:50:46.430Z,11.30
2022-11-24T10:55:02.061Z,11.50
2022-11-24T10:59:27.436Z,11.60
2022-11-24T11:03:47.062Z,11.40
2022-11-24T11:08:19.931Z,11.40
2022-11-24T11:12:47.639Z,11.30
2022-11-24T11:16:57.757Z,11.50
2022-11-24T11:21:05.498Z,11.70
2022-11-24T11:25:22.808Z,11.90
2022-11-24T11:34:21.885Z,11.90
2022-11-24T11:38:37.732Z,12.10
2022-11-24T11:43:03.008Z,12.00
2022-11-24T11:47:33.390Z,12.10
2022-11-24T11:52:12.832Z,12.10
2022-11-24T11:56:27.127Z,12.10
2022-11-24T12:00:39.623Z,12.20
2022-11-24T12:04:56.183Z,12.30
2022-11-24T12:09:21.336Z,12.30
2022-11-24T12:13:39.956Z,12.40
2022-11-24T12:17:51.576Z,12.20
2022-11-24T12:22:24.472Z,12.30
2022-11-24T12:26:34.262Z,12.40
2022-11-24T12:30:48.573Z,12.50
2022-11-24T12:35:20.070Z,12.40
2022-11-24T12:39:41.045Z,12.40
2022-11-24T12:43:53.006Z,12.50
2022-11-24T12:48:23.960Z,12.50
2022-11-24T12:52:58.703Z,12.60
2022-11-24T12:57:09.289Z,12.60
2022-11-24T13:01:21.992Z,12.60
2022-11-24T13:05:49.100Z,12.70
2022-11-24T13:10:40.415Z,12.60
2022-11-24T13:14:50.448Z,12.60
2022-11-24T13:18:59.481Z,12.40
2022-11-24T13:23:20.313Z,12.30
2022-11-24T13:27:38.885Z,12.30
2022-11-24T13:31:45.960Z,12.30
2022-11-24T13:36:04.636Z,12.30
2022-11-24T13:40:14.282Z,12.30
2022-11-24T13:44:24.613Z,12.20
2022-11-24T13:48:31.248Z,12.20
2022-11-24T13:52:47.376Z,12.20
2022-11-24T13:57:33.635Z,12.10
2022-11-24T14:01:42.491Z,12.10
2022-11-24T14:05:52.156Z,12.00
2022-11-24T14:09:58.908Z,12.00
2022-11-24T14:14:20.995Z,11.90
2022-11-24T14:18:29.194Z,12.00
2022-11-24T14:22:43.059Z,11.90
2022-11-24T14:26:50.311Z,11.80
2022-11-24T14:31:26.114Z,11.70
2022-11-24T14:35:35.245Z,11.60
2022-11-24T14:39:42.629Z,11.50
2022-11-24T14:43:49.570Z,11.40
2022-11-24T14:47:56.242Z,11.30
2022-11-24T14:52:10.009Z,11.10
2022-11-24T14:56:27.024Z,11.00
2022-11-24T15:00:33.955Z,10.80
2022-11-24T15:05:02.692Z,10.60
2022-11-24T15:09:24.748Z,10.50
2022-11-24T15:13:38.169Z,10.30
2022-11-24T15:17:58.928Z,10.10
2022-11-24T15:22:33.071Z,9.90
2022-11-24T15:26:42.112Z,9.80
2022-11-24T15:30:49.086Z,9.70
2022-11-24T15:34:55.729Z,9.60
2022-11-24T15:39:02.426Z,9.50
2022-11-24T15:43:22.036Z,9.40
2022-11-24T15:47:29.096Z,9.30
2022-11-24T15:51:39.537Z,9.20
2022-11-24T15:55:47.036Z,10.20
2022-11-24T15:59:53.728Z,9.00
2022-11-24T16:04:01.223Z,8.90
2022-11-24T16:08:13.297Z,8.90
2022-11-24T16:12:19.968Z,8.80
2022-11-24T16:16:26.718Z,8.70
2022-11-24T16:20:37.356Z,8.70
2022-11-24T16:24:44.023Z,8.70
2022-11-24T16:28:50.749Z,8.70
2022-11-24T16:32:57.425Z,8.70
2022-11-24T16:37:04.118Z,9.20
2022-11-24T16:41:11.017Z,8.50
2022-11-24T16:45:18.003Z,8.50
2022-11-24T16:49:24.692Z,8.50
2022-11-24T16:53:31.413Z,8.40
2022-11-24T16:57:38.117Z,8.40
2022-11-24T17:01:46.656Z,8.40
2022-11-24T17:05:58.501Z,8.40
2022-11-24T17:10:06.684Z,8.40
2022-11-24T17:14:13.453Z,8.40
2022-11-24T17:18:24.883Z,8.40
2022-11-24T17:22:32.026Z,8.50
2022-11-24T17:26:38.742Z,8.50
2022-11-24T17:30:45.455Z,8.50
2022-11-24T17:34:52.250Z,8.50
2022-11-24T17:39:00.199Z,8.50
2022-11-24T17:43:06.882Z,8.50
2022-11-24T17:47:14.936Z,8.50
2022-11-24T17:51:24.236Z,8.50
2022-11-24T17:55:30.940Z,8.40
2022-11-24T17:59:37.588Z,8.40
2022-11-24T18:03:47.717Z,8.50
2022-11-24T18:07:57.211Z,8.50
2022-11-24T18:12:04.987Z,8.60
2022-11-24T18:16:15.239Z,8.60
2022-11-24T18:20:21.906Z,8.70
2022-11-24T18:24:28.590Z,8.70
2022-11-24T18:28:35.701Z,8.70
2022-11-24T18:32:42.363Z,8.70
2022-11-24T18:36:52.050Z,8.70
2022-11-24T18:40:59.679Z,8.60
2022-11-24T18:45:07.108Z,8.60
2022-11-24T18:49:14.171Z,8.60
2022-11-24T18:53:22.568Z,8.50
2022-11-24T18:57:30.251Z,8.50
2022-11-24T19:01:37.718Z,8.50
2022-11-24T19:05:44.544Z,8.40
2022-11-24T19:09:51.452Z,8.40
2022-11-24T19:13:58.437Z,8.40
2022-11-24T19:18:05.382Z,8.50
2022-11-24T19:22:13.231Z,8.40
2022-11-24T19:26:19.922Z,8.40
2022-11-24T19:30:26.647Z,8.40
2022-11-24T19:34:33.747Z,8.40
2022-11-24T19:38:41.804Z,8.40
2022-11-24T19:42:48.509Z,8.40
2022-11-24T19:46:55.159Z,8.30
2022-11-24T19:51:03.576Z,8.20
2022-11-24T19:55:10.254Z,8.10
2022-11-24T19:59:17.065Z,8.20
2022-11-24T20:03:23.814Z,8.10
2022-11-24T20:07:30.523Z,8.10
2022-11-24T20:11:38.052Z,8.00
2022-11-24T20:15:47.582Z,8.40
2022-11-24T20:19:54.327Z,8.00
2022-11-24T20:24:04.197Z,8.10
2022-11-24T20:28:11.646Z,8.00
2022-11-24T20:32:20.229Z,8.00
2022-11-24T20:36:28.849Z,7.90
2022-11-24T20:40:35.531Z,7.90
2022-11-24T20:44:42.394Z,7.80
2022-11-24T20:48:49.815Z,7.80
2022-11-24T20:52:56.481Z,7.70
2022-11-24T20:57:03.290Z,7.70
2022-11-24T21:01:14.300Z,7.70
2022-11-24T21:05:21.032Z,7.70
2022-11-24T21:09:28.194Z,7.70
2022-11-24T21:13:36.611Z,8.20
2022-11-24T21:17:43.270Z,7.80
2022-11-24T21:21:51.072Z,7.80
2022-11-24T21:26:09.076Z,7.90
2022-11-24T21:30:18.339Z,8.10
2022-11-24T21:34:25.120Z,8.20
2022-11-24T21:38:32.331Z,8.30
2022-11-24T21:42:38.980Z,8.30
2022-11-24T21:46:51.146Z,8.40
2022-11-24T21:51:02.627Z,8.40
2022-11-24T21:55:09.450Z,8.60
2022-11-24T21:59:16.182Z,8.60
2022-11-24T22:03:22.839Z,8.70
2022-11-24T22:07:32.877Z,8.70
2022-11-24T22:11:39.568Z,8.80
2022-11-24T22:15:46.338Z,8.80
2022-11-24T22:19:53.011Z,8.80
2022-11-24T22:24:00.908Z,8.80
2022-11-24T22:28:07.556Z,8.80
2022-11-24T22:32:14.236Z,8.80
2022-11-24T22:36:22.623Z,8.80
2022-11-24T22:40:29.310Z,8.80
2022-11-24T22:44:36.273Z,8.70
2022-11-24T22:48:45.014Z,8.60
2022-11-24T22:52:51.711Z,8.60
2022-11-24T22:56:58.422Z,8.40
2022-11-24T23:01:05.286Z,8.30
2022-11-24T23:05:12.269Z,8.20
2022-11-24T23:09:20.507Z,9.60
2022-11-24T23:13:27.373Z,8.20
2022-11-24T23:17:34.068Z,8.20
2022-11-24T23:21:40.756Z,8.10
2022-11-24T23:25:47.457Z,8.20
2022-11-24T23:29:54.119Z,8.30
2022-11-24T23:34:04.496Z,8.50
2022-11-24T23:38:11.194Z,8.60
2022-11-24T23:42:18.267Z,8.60
2022-11-24T23:46:26.542Z,8.70
2022-11-24T23:50:35.319Z,8.70
2022-11-24T23:54:46.713Z,8.80
2022-11-24T23:58:53.663Z,8.80
